sensor_id;sensor_type;location;lat;lon;timestamp;temperature;humidity
418;DHT22;49;48.530;9.200;2022-08-02T00:02:05;24.60;80.10
418;DHT22;49;48.530;9.200;2022-08-02T00:04:32;24.70;79.10
418;DHT22;49;48.530;9.200;2022-08-02T00:06:59;24.70;80.40
418;DHT22;49;48.530;9.200;2022-08-02T00:09:27;24.30;82.10
418;DHT22;49;48.530;9.200;2022-08-02T00:11:54;24.00;83.80
418;DHT22;49;48.530;9.200;2022-08-02T00:14:21;23.40;87.40
418;DHT22;49;48.530;9.200;2022-08-02T00:16:48;23.10;89.60
418;DHT22;49;48.530;9.200;2022-08-02T00:19:15;22.90;90.50
418;DHT22;49;48.530;9.200;2022-08-02T00:21:42;22.90;90.70
418;DHT22;49;48.530;9.200;2022-08-02T00:24:09;23.40;88.60
418;DHT22;49;48.530;9.200;2022-08-02T00:26:37;23.80;86.10
418;DHT22;49;48.530;9.200;2022-08-02T00:29:04;24.20;83.80
418;DHT22;49;48.530;9.200;2022-08-02T00:31:33;24.40;81.50
418;DHT22;49;48.530;9.200;2022-08-02T00:34:00;24.60;80.50
418;DHT22;49;48.530;9.200;2022-08-02T00:36:28;24.90;77.20
418;DHT22;49;48.530;9.200;2022-08-02T00:38:56;25.10;77.20
418;DHT22;49;48.530;9.200;2022-08-02T00:41:23;25.00;77.80
418;DHT22;49;48.530;9.200;2022-08-02T00:43:51;24.70;78.90
418;DHT22;49;48.530;9.200;2022-08-02T00:46:19;24.50;79.40
418;DHT22;49;48.530;9.200;2022-08-02T00:48:46;24.50;78.90
418;DHT22;49;48.530;9.200;2022-08-02T00:51:14;24.40;80.70
418;DHT22;49;48.530;9.200;2022-08-02T00:53:42;24.20;81.50
418;DHT22;49;48.530;9.200;2022-08-02T00:56:08;24.30;81.80
418;DHT22;49;48.530;9.200;2022-08-02T00:58:36;24.40;80.40
418;DHT22;49;48.530;9.200;2022-08-02T01:01:06;24.50;80.00
418;DHT22;49;48.530;9.200;2022-08-02T01:03:33;24.40;80.70
418;DHT22;49;48.530;9.200;2022-08-02T01:06:00;24.40;80.70
418;DHT22;49;48.530;9.200;2022-08-02T01:08:26;24.30;79.80
418;DHT22;49;48.530;9.200;2022-08-02T01:10:53;23.80;82.50
418;DHT22;49;48.530;9.200;2022-08-02T01:13:21;23.40;85.10
418;DHT22;49;48.530;9.200;2022-08-02T01:15:59;23.00;86.90
418;DHT22;49;48.530;9.200;2022-08-02T01:18:31;23.30;85.10
418;DHT22;49;48.530;9.200;2022-08-02T01:21:17;23.30;85.10
418;DHT22;49;48.530;9.200;2022-08-02T01:24:05;23.60;83.40
418;DHT22;49;48.530;9.200;2022-08-02T01:26:42;24.30;79.20
418;DHT22;49;48.530;9.200;2022-08-02T01:29:18;24.40;77.80
418;DHT22;49;48.530;9.200;2022-08-02T01:31:49;24.20;78.80
418;DHT22;49;48.530;9.200;2022-08-02T01:34:23;23.80;80.40
418;DHT22;49;48.530;9.200;2022-08-02T01:36:59;23.70;81.10
418;DHT22;49;48.530;9.200;2022-08-02T01:39:30;23.60;81.60
418;DHT22;49;48.530;9.200;2022-08-02T01:42:00;23.60;80.80
418;DHT22;49;48.530;9.200;2022-08-02T01:44:32;23.70;80.70
418;DHT22;49;48.530;9.200;2022-08-02T01:47:02;23.90;79.90
418;DHT22;49;48.530;9.200;2022-08-02T01:49:32;24.20;77.60
418;DHT22;49;48.530;9.200;2022-08-02T01:52:01;23.70;79.50
418;DHT22;49;48.530;9.200;2022-08-02T01:54:49;23.80;79.00
418;DHT22;49;48.530;9.200;2022-08-02T01:57:20;24.10;77.50
418;DHT22;49;48.530;9.200;2022-08-02T01:59:50;24.20;76.70
418;DHT22;49;48.530;9.200;2022-08-02T02:02:19;23.90;77.40
418;DHT22;49;48.530;9.200;2022-08-02T02:04:48;24.00;77.40
418;DHT22;49;48.530;9.200;2022-08-02T02:07:16;23.90;77.10
418;DHT22;49;48.530;9.200;2022-08-02T02:09:45;23.80;77.90
418;DHT22;49;48.530;9.200;2022-08-02T02:12:13;24.20;76.40
418;DHT22;49;48.530;9.200;2022-08-02T02:14:42;24.30;75.80
418;DHT22;49;48.530;9.200;2022-08-02T02:17:11;24.30;75.40
418;DHT22;49;48.530;9.200;2022-08-02T02:19:39;24.30;75.50
418;DHT22;49;48.530;9.200;2022-08-02T02:22:07;24.50;74.30
418;DHT22;49;48.530;9.200;2022-08-02T02:24:35;24.60;74.20
418;DHT22;49;48.530;9.200;2022-08-02T02:27:02;24.70;72.40
418;DHT22;49;48.530;9.200;2022-08-02T02:29:31;24.70;72.00
418;DHT22;49;48.530;9.200;2022-08-02T02:32:00;24.70;72.70
418;DHT22;49;48.530;9.200;2022-08-02T02:34:31;24.70;72.00
418;DHT22;49;48.530;9.200;2022-08-02T02:37:01;24.80;71.60
418;DHT22;49;48.530;9.200;2022-08-02T02:39:31;24.70;70.90
418;DHT22;49;48.530;9.200;2022-08-02T02:42:02;24.60;71.60
418;DHT22;49;48.530;9.200;2022-08-02T02:44:30;24.10;73.70
418;DHT22;49;48.530;9.200;2022-08-02T02:46:59;24.10;74.70
418;DHT22;49;48.530;9.200;2022-08-02T02:49:31;24.20;73.80
418;DHT22;49;48.530;9.200;2022-08-02T02:52:01;24.20;73.90
418;DHT22;49;48.530;9.200;2022-08-02T02:54:29;23.60;75.90
418;DHT22;49;48.530;9.200;2022-08-02T02:56:58;23.10;80.00
418;DHT22;49;48.530;9.200;2022-08-02T02:59:26;23.20;79.90
418;DHT22;49;48.530;9.200;2022-08-02T03:01:53;23.00;80.30
418;DHT22;49;48.530;9.200;2022-08-02T03:04:21;23.00;81.10
418;DHT22;49;48.530;9.200;2022-08-02T03:06:51;22.90;81.40
418;DHT22;49;48.530;9.200;2022-08-02T03:09:18;23.30;79.70
418;DHT22;49;48.530;9.200;2022-08-02T03:11:45;23.60;78.20
418;DHT22;49;48.530;9.200;2022-08-02T03:14:12;23.90;76.10
418;DHT22;49;48.530;9.200;2022-08-02T03:16:43;24.00;74.90
418;DHT22;49;48.530;9.200;2022-08-02T03:19:10;24.00;75.00
418;DHT22;49;48.530;9.200;2022-08-02T03:21:37;24.30;72.90
418;DHT22;49;48.530;9.200;2022-08-02T03:24:06;24.20;73.30
418;DHT22;49;48.530;9.200;2022-08-02T03:26:33;24.40;72.00
418;DHT22;49;48.530;9.200;2022-08-02T03:29:01;24.30;71.10
418;DHT22;49;48.530;9.200;2022-08-02T03:31:28;24.30;72.00
418;DHT22;49;48.530;9.200;2022-08-02T03:33:57;24.40;71.70
418;DHT22;49;48.530;9.200;2022-08-02T03:36:27;24.40;70.80
418;DHT22;49;48.530;9.200;2022-08-02T03:38:54;24.50;70.60
418;DHT22;49;48.530;9.200;2022-08-02T03:41:23;24.40;70.30
418;DHT22;49;48.530;9.200;2022-08-02T03:43:51;24.40;69.70
418;DHT22;49;48.530;9.200;2022-08-02T03:46:21;24.30;70.40
418;DHT22;49;48.530;9.200;2022-08-02T03:48:50;24.50;70.40
418;DHT22;49;48.530;9.200;2022-08-02T03:51:18;24.50;69.50
418;DHT22;49;48.530;9.200;2022-08-02T03:53:45;24.30;69.60
418;DHT22;49;48.530;9.200;2022-08-02T03:56:14;23.90;71.60
418;DHT22;49;48.530;9.200;2022-08-02T03:58:42;23.60;72.50
418;DHT22;49;48.530;9.200;2022-08-02T04:01:09;23.70;73.20
418;DHT22;49;48.530;9.200;2022-08-02T04:03:36;23.60;73.90
418;DHT22;49;48.530;9.200;2022-08-02T04:06:03;24.00;72.90
418;DHT22;49;48.530;9.200;2022-08-02T04:08:30;24.30;71.50
418;DHT22;49;48.530;9.200;2022-08-02T04:10:57;24.30;70.50
418;DHT22;49;48.530;9.200;2022-08-02T04:13:43;24.40;70.30
418;DHT22;49;48.530;9.200;2022-08-02T04:16:13;24.30;71.10
418;DHT22;49;48.530;9.200;2022-08-02T04:18:45;24.10;71.50
418;DHT22;49;48.530;9.200;2022-08-02T04:21:18;23.70;73.30
418;DHT22;49;48.530;9.200;2022-08-02T04:23:47;23.70;73.70
418;DHT22;49;48.530;9.200;2022-08-02T04:26:16;23.50;74.20
418;DHT22;49;48.530;9.200;2022-08-02T04:28:45;23.50;75.40
418;DHT22;49;48.530;9.200;2022-08-02T04:31:14;23.50;75.70
418;DHT22;49;48.530;9.200;2022-08-02T04:33:43;23.50;76.30
418;DHT22;49;48.530;9.200;2022-08-02T04:36:10;23.50;75.80
418;DHT22;49;48.530;9.200;2022-08-02T04:38:38;23.60;75.40
418;DHT22;49;48.530;9.200;2022-08-02T04:41:05;23.50;74.80
418;DHT22;49;48.530;9.200;2022-08-02T04:43:33;23.60;74.80
418;DHT22;49;48.530;9.200;2022-08-02T04:46:02;23.50;74.90
418;DHT22;49;48.530;9.200;2022-08-02T04:48:29;23.50;75.70
418;DHT22;49;48.530;9.200;2022-08-02T04:50:56;23.50;75.70
418;DHT22;49;48.530;9.200;2022-08-02T04:53:23;23.70;75.30
418;DHT22;49;48.530;9.200;2022-08-02T04:55:50;24.20;72.80
418;DHT22;49;48.530;9.200;2022-08-02T04:58:17;24.60;70.60
418;DHT22;49;48.530;9.200;2022-08-02T05:00:44;24.90;68.60
418;DHT22;49;48.530;9.200;2022-08-02T05:03:12;25.10;67.20
418;DHT22;49;48.530;9.200;2022-08-02T05:05:39;25.00;67.20
418;DHT22;49;48.530;9.200;2022-08-02T05:08:06;25.30;66.40
418;DHT22;49;48.530;9.200;2022-08-02T05:10:33;25.50;66.30
418;DHT22;49;48.530;9.200;2022-08-02T05:13:03;25.60;64.10
418;DHT22;49;48.530;9.200;2022-08-02T05:15:30;25.70;65.10
418;DHT22;49;48.530;9.200;2022-08-02T05:17:57;25.70;65.30
418;DHT22;49;48.530;9.200;2022-08-02T05:20:25;25.70;64.20
418;DHT22;49;48.530;9.200;2022-08-02T05:22:52;25.70;63.70
418;DHT22;49;48.530;9.200;2022-08-02T05:25:19;25.70;63.70
418;DHT22;49;48.530;9.200;2022-08-02T05:27:46;25.80;64.60
418;DHT22;49;48.530;9.200;2022-08-02T05:30:13;26.00;62.60
418;DHT22;49;48.530;9.200;2022-08-02T05:32:45;26.10;62.50
418;DHT22;49;48.530;9.200;2022-08-02T05:35:12;26.30;61.60
418;DHT22;49;48.530;9.200;2022-08-02T05:37:41;26.30;62.20
418;DHT22;49;48.530;9.200;2022-08-02T05:40:08;26.50;62.40
418;DHT22;49;48.530;9.200;2022-08-02T05:42:35;27.00;60.90
418;DHT22;49;48.530;9.200;2022-08-02T05:45:04;27.60;63.80
418;DHT22;49;48.530;9.200;2022-08-02T05:47:31;28.50;60.00
418;DHT22;49;48.530;9.200;2022-08-02T05:49:58;29.50;54.60
418;DHT22;49;48.530;9.200;2022-08-02T05:52:28;30.30;51.30
418;DHT22;49;48.530;9.200;2022-08-02T05:55:05;31.40;50.10
418;DHT22;49;48.530;9.200;2022-08-02T05:57:39;32.30;43.00
418;DHT22;49;48.530;9.200;2022-08-02T06:00:09;33.30;34.60
418;DHT22;49;48.530;9.200;2022-08-02T06:03:04;33.30;32.40
418;DHT22;49;48.530;9.200;2022-08-02T06:05:50;33.20;33.10
418;DHT22;49;48.530;9.200;2022-08-02T06:08:29;32.80;28.80
418;DHT22;49;48.530;9.200;2022-08-02T06:11:01;32.40;29.50
418;DHT22;49;48.530;9.200;2022-08-02T06:13:28;31.80;30.10
418;DHT22;49;48.530;9.200;2022-08-02T06:15:56;31.50;32.00
418;DHT22;49;48.530;9.200;2022-08-02T06:18:26;31.50;31.20
418;DHT22;49;48.530;9.200;2022-08-02T06:20:55;31.20;32.20
418;DHT22;49;48.530;9.200;2022-08-02T06:23:25;31.00;33.30
418;DHT22;49;48.530;9.200;2022-08-02T06:25:54;31.20;35.80
418;DHT22;49;48.530;9.200;2022-08-02T06:28:27;31.60;33.20
418;DHT22;49;48.530;9.200;2022-08-02T06:30:56;32.30;31.20
418;DHT22;49;48.530;9.200;2022-08-02T06:33:25;33.20;30.00
418;DHT22;49;48.530;9.200;2022-08-02T06:35:58;33.90;29.00
418;DHT22;49;48.530;9.200;2022-08-02T06:38:32;35.00;26.10
418;DHT22;49;48.530;9.200;2022-08-02T06:41:03;36.10;24.30
418;DHT22;49;48.530;9.200;2022-08-02T06:43:44;36.60;23.20
418;DHT22;49;48.530;9.200;2022-08-02T06:46:12;37.10;21.80
418;DHT22;49;48.530;9.200;2022-08-02T06:48:41;36.70;21.70
418;DHT22;49;48.530;9.200;2022-08-02T06:51:08;36.90;22.40
418;DHT22;49;48.530;9.200;2022-08-02T06:53:35;36.40;21.40
418;DHT22;49;48.530;9.200;2022-08-02T06:56:03;36.50;21.50
418;DHT22;49;48.530;9.200;2022-08-02T06:58:30;36.20;22.40
418;DHT22;49;48.530;9.200;2022-08-02T07:00:58;36.10;22.00
418;DHT22;49;48.530;9.200;2022-08-02T07:03:25;36.70;21.60
418;DHT22;49;48.530;9.200;2022-08-02T07:05:58;37.10;20.40
418;DHT22;49;48.530;9.200;2022-08-02T07:08:26;37.30;20.00
418;DHT22;49;48.530;9.200;2022-08-02T07:11:07;37.60;19.40
418;DHT22;49;48.530;9.200;2022-08-02T07:13:34;37.60;19.70
418;DHT22;49;48.530;9.200;2022-08-02T07:16:05;37.30;20.20
418;DHT22;49;48.530;9.200;2022-08-02T07:18:36;36.60;21.20
418;DHT22;49;48.530;9.200;2022-08-02T07:21:06;36.70;21.60
418;DHT22;49;48.530;9.200;2022-08-02T07:23:34;37.10;20.90
418;DHT22;49;48.530;9.200;2022-08-02T07:26:05;37.00;20.10
418;DHT22;49;48.530;9.200;2022-08-02T07:28:34;36.30;21.40
418;DHT22;49;48.530;9.200;2022-08-02T07:31:02;37.10;20.50
418;DHT22;49;48.530;9.200;2022-08-02T07:33:30;37.90;20.00
418;DHT22;49;48.530;9.200;2022-08-02T07:35:57;38.50;18.50
418;DHT22;49;48.530;9.200;2022-08-02T07:38:25;38.60;17.30
418;DHT22;49;48.530;9.200;2022-08-02T07:40:52;38.60;17.60
418;DHT22;49;48.530;9.200;2022-08-02T07:43:19;38.50;17.50
418;DHT22;49;48.530;9.200;2022-08-02T07:45:46;38.60;16.70
418;DHT22;49;48.530;9.200;2022-08-02T07:48:16;39.00;16.10
418;DHT22;49;48.530;9.200;2022-08-02T07:50:45;39.80;15.20
418;DHT22;49;48.530;9.200;2022-08-02T07:53:13;39.80;15.80
418;DHT22;49;48.530;9.200;2022-08-02T07:55:42;39.60;15.70
418;DHT22;49;48.530;9.200;2022-08-02T07:58:10;39.20;16.20
418;DHT22;49;48.530;9.200;2022-08-02T08:00:37;38.90;16.40
418;DHT22;49;48.530;9.200;2022-08-02T08:03:08;38.40;17.20
418;DHT22;49;48.530;9.200;2022-08-02T08:05:35;38.10;16.50
418;DHT22;49;48.530;9.200;2022-08-02T08:08:03;38.70;15.90
418;DHT22;49;48.530;9.200;2022-08-02T08:10:30;38.40;16.90
418;DHT22;49;48.530;9.200;2022-08-02T08:12:58;38.00;17.50
418;DHT22;49;48.530;9.200;2022-08-02T08:15:24;38.40;17.10
418;DHT22;49;48.530;9.200;2022-08-02T08:17:51;38.70;16.40
418;DHT22;49;48.530;9.200;2022-08-02T08:20:18;38.20;17.00
418;DHT22;49;48.530;9.200;2022-08-02T08:22:45;38.20;16.60
418;DHT22;49;48.530;9.200;2022-08-02T08:25:13;37.90;17.60
418;DHT22;49;48.530;9.200;2022-08-02T08:27:47;38.10;17.10
418;DHT22;49;48.530;9.200;2022-08-02T08:30:14;37.50;17.20
418;DHT22;49;48.530;9.200;2022-08-02T08:32:42;37.40;17.90
418;DHT22;49;48.530;9.200;2022-08-02T08:35:09;37.90;17.00
418;DHT22;49;48.530;9.200;2022-08-02T08:37:37;37.80;16.80
418;DHT22;49;48.530;9.200;2022-08-02T08:40:04;37.90;17.20
418;DHT22;49;48.530;9.200;2022-08-02T08:42:35;37.10;17.20
418;DHT22;49;48.530;9.200;2022-08-02T08:45:02;37.00;19.00
418;DHT22;49;48.530;9.200;2022-08-02T08:47:33;37.70;17.50
418;DHT22;49;48.530;9.200;2022-08-02T08:50:04;38.00;17.20
418;DHT22;49;48.530;9.200;2022-08-02T08:52:35;38.10;17.20
418;DHT22;49;48.530;9.200;2022-08-02T08:55:09;37.80;17.10
418;DHT22;49;48.530;9.200;2022-08-02T08:57:39;37.30;17.70
418;DHT22;49;48.530;9.200;2022-08-02T09:00:08;36.30;18.90
418;DHT22;49;48.530;9.200;2022-08-02T09:02:35;35.90;19.90
418;DHT22;49;48.530;9.200;2022-08-02T09:05:03;35.90;19.60
418;DHT22;49;48.530;9.200;2022-08-02T09:07:31;36.00;19.40
418;DHT22;49;48.530;9.200;2022-08-02T09:09:58;35.70;20.00
418;DHT22;49;48.530;9.200;2022-08-02T09:12:25;35.50;21.00
418;DHT22;49;48.530;9.200;2022-08-02T09:14:53;35.00;21.30
418;DHT22;49;48.530;9.200;2022-08-02T09:17:20;34.70;20.60
418;DHT22;49;48.530;9.200;2022-08-02T09:19:47;34.70;20.80
418;DHT22;49;48.530;9.200;2022-08-02T09:22:31;34.50;21.70
418;DHT22;49;48.530;9.200;2022-08-02T09:25:00;34.30;20.90
418;DHT22;49;48.530;9.200;2022-08-02T09:27:34;34.10;21.20
418;DHT22;49;48.530;9.200;2022-08-02T09:30:09;34.20;21.60
418;DHT22;49;48.530;9.200;2022-08-02T09:35:35;33.20;23.20
418;DHT22;49;48.530;9.200;2022-08-02T09:38:09;32.70;24.50
418;DHT22;49;48.530;9.200;2022-08-02T09:40:36;32.70;24.20
418;DHT22;49;48.530;9.200;2022-08-02T09:43:04;33.00;23.90
418;DHT22;49;48.530;9.200;2022-08-02T09:45:34;32.90;24.30
418;DHT22;49;48.530;9.200;2022-08-02T09:48:05;33.20;23.30
418;DHT22;49;48.530;9.200;2022-08-02T09:50:32;33.10;23.70
418;DHT22;49;48.530;9.200;2022-08-02T09:53:00;33.10;24.40
418;DHT22;49;48.530;9.200;2022-08-02T09:55:28;32.60;23.80
418;DHT22;49;48.530;9.200;2022-08-02T09:57:55;32.60;24.10
418;DHT22;49;48.530;9.200;2022-08-02T10:00:22;33.10;22.90
418;DHT22;49;48.530;9.200;2022-08-02T10:03:07;33.10;22.90
418;DHT22;49;48.530;9.200;2022-08-02T10:05:48;32.90;22.30
418;DHT22;49;48.530;9.200;2022-08-02T10:08:15;32.90;22.40
418;DHT22;49;48.530;9.200;2022-08-02T10:10:42;32.70;21.90
418;DHT22;49;48.530;9.200;2022-08-02T10:13:09;32.20;22.80
418;DHT22;49;48.530;9.200;2022-08-02T10:15:37;31.90;22.80
418;DHT22;49;48.530;9.200;2022-08-02T10:18:06;31.70;23.80
418;DHT22;49;48.530;9.200;2022-08-02T10:20:39;31.90;22.90
418;DHT22;49;48.530;9.200;2022-08-02T10:23:07;32.20;22.40
418;DHT22;49;48.530;9.200;2022-08-02T10:25:36;32.50;22.90
418;DHT22;49;48.530;9.200;2022-08-02T10:28:05;32.40;23.60
418;DHT22;49;48.530;9.200;2022-08-02T10:30:34;32.70;21.20
418;DHT22;49;48.530;9.200;2022-08-02T10:33:02;32.90;21.20
418;DHT22;49;48.530;9.200;2022-08-02T10:35:34;33.10;21.60
418;DHT22;49;48.530;9.200;2022-08-02T10:38:04;32.80;21.10
418;DHT22;49;48.530;9.200;2022-08-02T10:40:45;32.50;22.20
418;DHT22;49;48.530;9.200;2022-08-02T10:43:39;32.20;22.40
418;DHT22;49;48.530;9.200;2022-08-02T10:46:20;32.80;21.70
418;DHT22;49;48.530;9.200;2022-08-02T10:49:11;32.70;19.50
418;DHT22;49;48.530;9.200;2022-08-02T10:52:04;32.60;19.40
418;DHT22;49;48.530;9.200;2022-08-02T10:54:33;32.80;19.50
418;DHT22;49;48.530;9.200;2022-08-02T10:57:01;32.80;20.40
418;DHT22;49;48.530;9.200;2022-08-02T10:59:30;33.00;20.80
418;DHT22;49;48.530;9.200;2022-08-02T11:01:59;32.70;20.80
418;DHT22;49;48.530;9.200;2022-08-02T11:04:28;32.80;20.20
418;DHT22;49;48.530;9.200;2022-08-02T11:07:11;32.90;20.60
418;DHT22;49;48.530;9.200;2022-08-02T11:09:40;32.80;21.10
418;DHT22;49;48.530;9.200;2022-08-02T11:12:08;32.80;20.60
418;DHT22;49;48.530;9.200;2022-08-02T11:14:37;32.80;21.90
418;DHT22;49;48.530;9.200;2022-08-02T11:17:05;33.00;22.60
418;DHT22;49;48.530;9.200;2022-08-02T11:19:34;33.10;22.30
418;DHT22;49;48.530;9.200;2022-08-02T11:22:22;33.10;21.40
418;DHT22;49;48.530;9.200;2022-08-02T11:24:49;32.80;21.70
418;DHT22;49;48.530;9.200;2022-08-02T11:27:19;32.70;22.20
418;DHT22;49;48.530;9.200;2022-08-02T11:29:46;32.80;22.70
418;DHT22;49;48.530;9.200;2022-08-02T11:32:18;33.10;21.60
418;DHT22;49;48.530;9.200;2022-08-02T11:34:47;32.30;21.90
418;DHT22;49;48.530;9.200;2022-08-02T11:37:29;32.30;22.40
418;DHT22;49;48.530;9.200;2022-08-02T11:39:56;32.30;22.60
418;DHT22;49;48.530;9.200;2022-08-02T11:42:30;32.40;22.00
418;DHT22;49;48.530;9.200;2022-08-02T11:44:58;32.60;21.40
418;DHT22;49;48.530;9.200;2022-08-02T11:47:25;32.60;20.70
418;DHT22;49;48.530;9.200;2022-08-02T11:50:03;31.90;21.90
418;DHT22;49;48.530;9.200;2022-08-02T11:52:33;31.20;22.50
418;DHT22;49;48.530;9.200;2022-08-02T11:55:01;31.40;22.50
418;DHT22;49;48.530;9.200;2022-08-02T11:57:30;31.60;22.40
418;DHT22;49;48.530;9.200;2022-08-02T11:59:56;31.70;22.40
418;DHT22;49;48.530;9.200;2022-08-02T12:02:24;31.40;22.80
418;DHT22;49;48.530;9.200;2022-08-02T12:04:52;31.50;22.30
418;DHT22;49;48.530;9.200;2022-08-02T12:07:25;31.90;23.00
418;DHT22;49;48.530;9.200;2022-08-02T12:09:58;32.30;21.60
418;DHT22;49;48.530;9.200;2022-08-02T12:12:26;32.40;20.90
418;DHT22;49;48.530;9.200;2022-08-02T12:14:53;32.60;19.40
418;DHT22;49;48.530;9.200;2022-08-02T12:17:22;32.80;19.40
418;DHT22;49;48.530;9.200;2022-08-02T12:20:07;33.20;19.40
418;DHT22;49;48.530;9.200;2022-08-02T12:22:35;33.30;19.60
418;DHT22;49;48.530;9.200;2022-08-02T12:25:16;33.30;19.80
418;DHT22;49;48.530;9.200;2022-08-02T12:27:44;33.30;19.80
418;DHT22;49;48.530;9.200;2022-08-02T12:30:12;32.80;21.20
418;DHT22;49;48.530;9.200;2022-08-02T12:32:41;32.20;21.10
418;DHT22;49;48.530;9.200;2022-08-02T12:35:11;32.50;21.10
418;DHT22;49;48.530;9.200;2022-08-02T12:37:39;32.00;21.60
418;DHT22;49;48.530;9.200;2022-08-02T12:40:22;31.50;22.70
418;DHT22;49;48.530;9.200;2022-08-02T12:42:50;31.60;22.00
418;DHT22;49;48.530;9.200;2022-08-02T12:45:17;31.60;21.40
418;DHT22;49;48.530;9.200;2022-08-02T12:47:45;31.90;20.60
418;DHT22;49;48.530;9.200;2022-08-02T12:50:17;32.20;20.20
418;DHT22;49;48.530;9.200;2022-08-02T12:52:45;32.60;20.90
418;DHT22;49;48.530;9.200;2022-08-02T12:55:18;32.60;20.20
418;DHT22;49;48.530;9.200;2022-08-02T12:57:53;32.30;20.70
418;DHT22;49;48.530;9.200;2022-08-02T13:00:28;32.30;20.30
418;DHT22;49;48.530;9.200;2022-08-02T13:02:56;32.20;20.50
418;DHT22;49;48.530;9.200;2022-08-02T13:05:25;32.60;19.80
418;DHT22;49;48.530;9.200;2022-08-02T13:07:53;33.10;19.10
418;DHT22;49;48.530;9.200;2022-08-02T13:10:22;33.10;19.70
418;DHT22;49;48.530;9.200;2022-08-02T13:12:50;33.10;20.30
418;DHT22;49;48.530;9.200;2022-08-02T13:15:19;32.80;19.50
418;DHT22;49;48.530;9.200;2022-08-02T13:17:47;33.00;19.60
418;DHT22;49;48.530;9.200;2022-08-02T13:20:14;33.30;19.80
418;DHT22;49;48.530;9.200;2022-08-02T13:22:41;32.90;18.40
418;DHT22;49;48.530;9.200;2022-08-02T13:25:08;32.80;18.60
418;DHT22;49;48.530;9.200;2022-08-02T13:27:37;33.20;18.20
418;DHT22;49;48.530;9.200;2022-08-02T13:30:05;33.60;18.70
418;DHT22;49;48.530;9.200;2022-08-02T13:32:32;33.90;17.50
418;DHT22;49;48.530;9.200;2022-08-02T13:34:59;33.50;17.00
418;DHT22;49;48.530;9.200;2022-08-02T13:37:26;33.50;18.80
418;DHT22;49;48.530;9.200;2022-08-02T13:39:53;33.30;19.80
418;DHT22;49;48.530;9.200;2022-08-02T13:42:20;33.50;18.70
418;DHT22;49;48.530;9.200;2022-08-02T13:44:49;33.40;18.90
418;DHT22;49;48.530;9.200;2022-08-02T13:47:15;33.10;18.70
418;DHT22;49;48.530;9.200;2022-08-02T13:49:42;32.80;18.00
418;DHT22;49;48.530;9.200;2022-08-02T13:52:10;32.60;19.30
418;DHT22;49;48.530;9.200;2022-08-02T13:54:37;32.50;19.00
418;DHT22;49;48.530;9.200;2022-08-02T13:57:04;32.90;18.70
418;DHT22;49;48.530;9.200;2022-08-02T13:59:31;33.40;17.80
418;DHT22;49;48.530;9.200;2022-08-02T14:01:59;33.60;17.20
418;DHT22;49;48.530;9.200;2022-08-02T14:04:26;33.80;18.00
418;DHT22;49;48.530;9.200;2022-08-02T14:06:54;33.90;17.90
418;DHT22;49;48.530;9.200;2022-08-02T14:09:21;34.00;17.80
418;DHT22;49;48.530;9.200;2022-08-02T14:11:48;34.10;17.50
418;DHT22;49;48.530;9.200;2022-08-02T14:14:15;34.10;17.90
418;DHT22;49;48.530;9.200;2022-08-02T14:16:42;33.50;17.80
418;DHT22;49;48.530;9.200;2022-08-02T14:19:11;33.00;19.30
418;DHT22;49;48.530;9.200;2022-08-02T14:21:38;33.30;18.10
418;DHT22;49;48.530;9.200;2022-08-02T14:24:05;33.80;18.20
418;DHT22;49;48.530;9.200;2022-08-02T14:26:32;33.60;17.80
418;DHT22;49;48.530;9.200;2022-08-02T14:28:59;33.50;18.10
418;DHT22;49;48.530;9.200;2022-08-02T14:31:26;33.70;17.70
418;DHT22;49;48.530;9.200;2022-08-02T14:33:55;33.90;17.20
418;DHT22;49;48.530;9.200;2022-08-02T14:36:23;33.80;17.70
418;DHT22;49;48.530;9.200;2022-08-02T14:38:50;34.20;17.40
418;DHT22;49;48.530;9.200;2022-08-02T14:41:17;34.60;17.20
418;DHT22;49;48.530;9.200;2022-08-02T14:43:44;34.70;16.90
418;DHT22;49;48.530;9.200;2022-08-02T14:46:29;34.80;17.60
418;DHT22;49;48.530;9.200;2022-08-02T14:48:57;34.50;17.20
418;DHT22;49;48.530;9.200;2022-08-02T14:51:29;34.00;17.20
418;DHT22;49;48.530;9.200;2022-08-02T14:53:56;33.30;18.20
418;DHT22;49;48.530;9.200;2022-08-02T14:56:23;32.20;19.60
418;DHT22;49;48.530;9.200;2022-08-02T14:58:50;31.50;20.30
418;DHT22;49;48.530;9.200;2022-08-02T15:01:17;31.40;20.40
418;DHT22;49;48.530;9.200;2022-08-02T15:03:44;31.70;21.00
418;DHT22;49;48.530;9.200;2022-08-02T15:06:10;31.50;21.40
418;DHT22;49;48.530;9.200;2022-08-02T15:08:39;31.10;22.20
418;DHT22;49;48.530;9.200;2022-08-02T15:11:06;31.40;21.10
418;DHT22;49;48.530;9.200;2022-08-02T15:13:33;31.80;20.50
418;DHT22;49;48.530;9.200;2022-08-02T15:16:00;32.00;20.70
418;DHT22;49;48.530;9.200;2022-08-02T15:18:27;32.60;19.40
418;DHT22;49;48.530;9.200;2022-08-02T15:20:53;32.80;19.50
418;DHT22;49;48.530;9.200;2022-08-02T15:23:20;33.10;19.20
418;DHT22;49;48.530;9.200;2022-08-02T15:25:50;32.60;19.40
418;DHT22;49;48.530;9.200;2022-08-02T15:28:18;32.50;19.40
418;DHT22;49;48.530;9.200;2022-08-02T15:30:45;32.60;19.40
418;DHT22;49;48.530;9.200;2022-08-02T15:33:11;32.80;19.50
418;DHT22;49;48.530;9.200;2022-08-02T15:35:38;32.80;19.50
418;DHT22;49;48.530;9.200;2022-08-02T15:38:05;32.80;19.50
418;DHT22;49;48.530;9.200;2022-08-02T15:40:32;32.70;19.50
418;DHT22;49;48.530;9.200;2022-08-02T15:43:01;32.70;19.50
418;DHT22;49;48.530;9.200;2022-08-02T15:45:27;32.80;19.50
418;DHT22;49;48.530;9.200;2022-08-02T15:47:54;32.90;18.90
418;DHT22;49;48.530;9.200;2022-08-02T15:50:22;32.80;19.50
418;DHT22;49;48.530;9.200;2022-08-02T15:52:49;32.10;19.30
418;DHT22;49;48.530;9.200;2022-08-02T15:55:16;31.90;19.70
418;DHT22;49;48.530;9.200;2022-08-02T15:57:43;31.20;21.50
418;DHT22;49;48.530;9.200;2022-08-02T16:00:12;30.70;22.10
418;DHT22;49;48.530;9.200;2022-08-02T16:02:40;31.10;21.50
418;DHT22;49;48.530;9.200;2022-08-02T16:05:07;31.30;20.70
418;DHT22;49;48.530;9.200;2022-08-02T16:07:34;31.60;20.40
418;DHT22;49;48.530;9.200;2022-08-02T16:10:01;31.80;20.30
418;DHT22;49;48.530;9.200;2022-08-02T16:12:29;32.20;19.20
418;DHT22;49;48.530;9.200;2022-08-02T16:14:56;32.30;19.30
418;DHT22;49;48.530;9.200;2022-08-02T16:17:24;32.30;19.30
418;DHT22;49;48.530;9.200;2022-08-02T16:19:51;31.90;19.20
418;DHT22;49;48.530;9.200;2022-08-02T16:22:18;31.90;19.20
418;DHT22;49;48.530;9.200;2022-08-02T16:24:45;32.00;20.10
418;DHT22;49;48.530;9.200;2022-08-02T16:27:12;31.70;18.90
418;DHT22;49;48.530;9.200;2022-08-02T16:29:39;31.50;19.70
418;DHT22;49;48.530;9.200;2022-08-02T16:32:05;31.60;19.90
418;DHT22;49;48.530;9.200;2022-08-02T16:34:34;31.90;19.50
418;DHT22;49;48.530;9.200;2022-08-02T16:37:01;31.70;19.60
418;DHT22;49;48.530;9.200;2022-08-02T16:39:28;31.60;18.90
418;DHT22;49;48.530;9.200;2022-08-02T16:41:55;31.40;19.50
418;DHT22;49;48.530;9.200;2022-08-02T16:44:22;31.30;20.20
418;DHT22;49;48.530;9.200;2022-08-02T16:46:48;31.80;19.80
418;DHT22;49;48.530;9.200;2022-08-02T16:49:15;31.70;18.90
418;DHT22;49;48.530;9.200;2022-08-02T16:51:43;31.40;20.20
418;DHT22;49;48.530;9.200;2022-08-02T16:54:10;31.10;20.10
418;DHT22;49;48.530;9.200;2022-08-02T16:56:37;30.80;20.10
418;DHT22;49;48.530;9.200;2022-08-02T16:59:06;31.00;20.40
418;DHT22;49;48.530;9.200;2022-08-02T17:01:34;31.40;20.30
418;DHT22;49;48.530;9.200;2022-08-02T17:04:01;31.70;19.80
418;DHT22;49;48.530;9.200;2022-08-02T17:06:28;31.20;19.90
418;DHT22;49;48.530;9.200;2022-08-02T17:08:56;30.60;21.10